sensor_id;sensor_type;location;lat;lon;timestamp;temperature;humidity
12413;DHT22;13877;18.896;-99.222;2023-07-24T00:02:17;26.00;93.80
12413;DHT22;13877;18.896;-99.222;2023-07-24T00:04:43;26.00;94.20
12413;DHT22;13877;18.896;-99.222;2023-07-24T00:07:10;26.00;93.80
12413;DHT22;13877;18.896;-99.222;2023-07-24T00:09:36;25.90;94.10
12413;DHT22;13877;18.896;-99.222;2023-07-24T00:12:03;25.80;94.90
12413;DHT22;13877;18.896;-99.222;2023-07-24T00:14:29;25.70;95.50
12413;DHT22;13877;18.896;-99.222;2023-07-24T00:16:56;25.60;95.50
12413;DHT22;13877;18.896;-99.222;2023-07-24T00:19:22;25.50;95.70
12413;DHT22;13877;18.896;-99.222;2023-07-24T00:21:48;25.40;95.90
12413;DHT22;13877;18.896;-99.222;2023-07-24T00:24:15;25.30;96.30
12413;DHT22;13877;18.896;-99.222;2023-07-24T00:26:41;25.20;95.50
12413;DHT22;13877;18.896;-99.222;2023-07-24T00:29:08;25.10;95.30
12413;DHT22;13877;18.896;-99.222;2023-07-24T00:31:35;25.10;95.90
12413;DHT22;13877;18.896;-99.222;2023-07-24T00:34:02;25.00;95.90
12413;DHT22;13877;18.896;-99.222;2023-07-24T00:36:28;24.90;96.80
12413;DHT22;13877;18.896;-99.222;2023-07-24T00:38:54;24.80;97.20
12413;DHT22;13877;18.896;-99.222;2023-07-24T00:41:22;24.70;96.80
12413;DHT22;13877;18.896;-99.222;2023-07-24T00:43:48;24.70;96.50
12413;DHT22;13877;18.896;-99.222;2023-07-24T00:46:15;24.70;96.50
12413;DHT22;13877;18.896;-99.222;2023-07-24T00:48:41;24.70;96.90
12413;DHT22;13877;18.896;-99.222;2023-07-24T00:51:07;24.60;97.40
12413;DHT22;13877;18.896;-99.222;2023-07-24T00:53:34;24.50;96.90
12413;DHT22;13877;18.896;-99.222;2023-07-24T00:56:00;24.50;96.70
12413;DHT22;13877;18.896;-99.222;2023-07-24T00:58:27;24.50;96.60
12413;DHT22;13877;18.896;-99.222;2023-07-24T01:00:56;24.60;96.80
12413;DHT22;13877;18.896;-99.222;2023-07-24T01:03:24;24.60;96.70
12413;DHT22;13877;18.896;-99.222;2023-07-24T01:05:51;24.60;97.20
12413;DHT22;13877;18.896;-99.222;2023-07-24T01:08:18;24.60;97.00
12413;DHT22;13877;18.896;-99.222;2023-07-24T01:10:44;24.50;97.50
12413;DHT22;13877;18.896;-99.222;2023-07-24T01:13:15;24.50;97.30
12413;DHT22;13877;18.896;-99.222;2023-07-24T01:16:01;24.40;98.20
12413;DHT22;13877;18.896;-99.222;2023-07-24T01:18:29;24.40;98.10
12413;DHT22;13877;18.896;-99.222;2023-07-24T01:20:56;24.40;98.50
12413;DHT22;13877;18.896;-99.222;2023-07-24T01:28:23;24.20;99.50
12413;DHT22;13877;18.896;-99.222;2023-07-24T01:30:49;24.20;99.90
12413;DHT22;13877;18.896;-99.222;2023-07-24T01:33:18;24.20;99.90
12413;DHT22;13877;18.896;-99.222;2023-07-24T01:35:47;24.20;99.90
12413;DHT22;13877;18.896;-99.222;2023-07-24T01:38:16;24.20;99.90
12413;DHT22;13877;18.896;-99.222;2023-07-24T01:40:44;24.20;99.90
12413;DHT22;13877;18.896;-99.222;2023-07-24T01:43:11;24.10;99.90
12413;DHT22;13877;18.896;-99.222;2023-07-24T01:45:38;24.20;99.90
12413;DHT22;13877;18.896;-99.222;2023-07-24T01:48:06;24.10;99.90
12413;DHT22;13877;18.896;-99.222;2023-07-24T01:50:32;24.10;99.90
12413;DHT22;13877;18.896;-99.222;2023-07-24T01:52:59;24.00;99.90
12413;DHT22;13877;18.896;-99.222;2023-07-24T01:55:25;24.00;99.90
12413;DHT22;13877;18.896;-99.222;2023-07-24T01:57:52;24.00;99.90
12413;DHT22;13877;18.896;-99.222;2023-07-24T02:00:18;24.00;99.90
12413;DHT22;13877;18.896;-99.222;2023-07-24T02:02:45;24.00;99.90
12413;DHT22;13877;18.896;-99.222;2023-07-24T02:05:12;24.10;99.90
12413;DHT22;13877;18.896;-99.222;2023-07-24T02:07:38;24.10;99.90
12413;DHT22;13877;18.896;-99.222;2023-07-24T02:10:05;24.10;99.90
12413;DHT22;13877;18.896;-99.222;2023-07-24T02:12:31;24.10;99.90
12413;DHT22;13877;18.896;-99.222;2023-07-24T02:14:58;24.10;99.90
12413;DHT22;13877;18.896;-99.222;2023-07-24T02:17:25;24.00;99.90
12413;DHT22;13877;18.896;-99.222;2023-07-24T02:19:52;24.00;99.90
12413;DHT22;13877;18.896;-99.222;2023-07-24T02:22:18;24.00;99.90
12413;DHT22;13877;18.896;-99.222;2023-07-24T02:24:45;24.00;99.90
12413;DHT22;13877;18.896;-99.222;2023-07-24T02:27:12;24.00;99.90
12413;DHT22;13877;18.896;-99.222;2023-07-24T02:29:39;23.70;99.90
12413;DHT22;13877;18.896;-99.222;2023-07-24T02:32:05;21.70;99.90
12413;DHT22;13877;18.896;-99.222;2023-07-24T02:34:32;20.90;99.90
12413;DHT22;13877;18.896;-99.222;2023-07-24T02:36:58;20.60;99.90
12413;DHT22;13877;18.896;-99.222;2023-07-24T02:39:25;20.10;99.90
12413;DHT22;13877;18.896;-99.222;2023-07-24T02:41:53;19.60;99.90
12413;DHT22;13877;18.896;-99.222;2023-07-24T02:44:20;19.60;99.90
12413;DHT22;13877;18.896;-99.222;2023-07-24T02:46:46;19.50;99.90
12413;DHT22;13877;18.896;-99.222;2023-07-24T02:49:12;19.40;99.90
12413;DHT22;13877;18.896;-99.222;2023-07-24T02:51:39;19.30;99.90
12413;DHT22;13877;18.896;-99.222;2023-07-24T02:54:05;19.40;99.90
12413;DHT22;13877;18.896;-99.222;2023-07-24T02:56:32;19.30;99.90
12413;DHT22;13877;18.896;-99.222;2023-07-24T02:58:58;19.30;99.90
12413;DHT22;13877;18.896;-99.222;2023-07-24T03:01:25;19.50;99.90
12413;DHT22;13877;18.896;-99.222;2023-07-24T03:03:52;19.30;99.90
12413;DHT22;13877;18.896;-99.222;2023-07-24T03:06:19;19.50;99.90
12413;DHT22;13877;18.896;-99.222;2023-07-24T03:08:46;19.70;99.90
12413;DHT22;13877;18.896;-99.222;2023-07-24T03:11:12;19.70;99.90
12413;DHT22;13877;18.896;-99.222;2023-07-24T03:13:39;19.70;99.90
12413;DHT22;13877;18.896;-99.222;2023-07-24T03:16:07;19.70;99.90
12413;DHT22;13877;18.896;-99.222;2023-07-24T03:18:33;19.80;99.90
12413;DHT22;13877;18.896;-99.222;2023-07-24T03:21:00;19.80;99.90
12413;DHT22;13877;18.896;-99.222;2023-07-24T03:23:26;19.70;99.90
12413;DHT22;13877;18.896;-99.222;2023-07-24T03:25:53;19.50;99.90
12413;DHT22;13877;18.896;-99.222;2023-07-24T03:28:19;19.20;99.90
12413;DHT22;13877;18.896;-99.222;2023-07-24T03:30:46;19.20;99.90
12413;DHT22;13877;18.896;-99.222;2023-07-24T03:33:12;19.10;99.90
12413;DHT22;13877;18.896;-99.222;2023-07-24T03:35:38;19.10;99.90
12413;DHT22;13877;18.896;-99.222;2023-07-24T03:38:05;19.20;99.90
12413;DHT22;13877;18.896;-99.222;2023-07-24T03:40:31;19.30;99.90
12413;DHT22;13877;18.896;-99.222;2023-07-24T03:42:58;19.30;99.90
12413;DHT22;13877;18.896;-99.222;2023-07-24T03:45:24;19.30;99.90
12413;DHT22;13877;18.896;-99.222;2023-07-24T03:47:51;19.40;99.90
12413;DHT22;13877;18.896;-99.222;2023-07-24T03:50:17;19.40;99.90
12413;DHT22;13877;18.896;-99.222;2023-07-24T03:52:43;19.30;99.90
12413;DHT22;13877;18.896;-99.222;2023-07-24T03:55:10;19.30;99.90
12413;DHT22;13877;18.896;-99.222;2023-07-24T03:57:37;19.20;99.90
12413;DHT22;13877;18.896;-99.222;2023-07-24T04:00:03;19.20;99.90
12413;DHT22;13877;18.896;-99.222;2023-07-24T04:02:38;19.10;99.90
12413;DHT22;13877;18.896;-99.222;2023-07-24T04:05:05;19.10;99.90
12413;DHT22;13877;18.896;-99.222;2023-07-24T04:07:32;18.90;99.90
12413;DHT22;13877;18.896;-99.222;2023-07-24T04:09:58;18.90;99.90
12413;DHT22;13877;18.896;-99.222;2023-07-24T04:12:24;18.90;99.90
12413;DHT22;13877;18.896;-99.222;2023-07-24T04:14:51;18.90;99.90
12413;DHT22;13877;18.896;-99.222;2023-07-24T04:17:17;18.80;99.90
12413;DHT22;13877;18.896;-99.222;2023-07-24T04:19:44;18.80;99.90
12413;DHT22;13877;18.896;-99.222;2023-07-24T04:22:10;18.80;99.90
12413;DHT22;13877;18.896;-99.222;2023-07-24T04:24:37;18.80;99.90
12413;DHT22;13877;18.896;-99.222;2023-07-24T04:27:03;18.80;99.90
12413;DHT22;13877;18.896;-99.222;2023-07-24T04:29:30;18.80;99.90
12413;DHT22;13877;18.896;-99.222;2023-07-24T04:31:56;18.60;99.90
12413;DHT22;13877;18.896;-99.222;2023-07-24T04:34:22;18.60;99.90
12413;DHT22;13877;18.896;-99.222;2023-07-24T04:36:49;18.60;99.90
12413;DHT22;13877;18.896;-99.222;2023-07-24T04:39:15;18.70;99.90
12413;DHT22;13877;18.896;-99.222;2023-07-24T04:41:42;18.60;99.90
12413;DHT22;13877;18.896;-99.222;2023-07-24T04:44:08;18.50;99.90
12413;DHT22;13877;18.896;-99.222;2023-07-24T04:46:34;18.50;99.90
12413;DHT22;13877;18.896;-99.222;2023-07-24T04:49:01;18.50;99.90
12413;DHT22;13877;18.896;-99.222;2023-07-24T04:51:27;18.60;99.90
12413;DHT22;13877;18.896;-99.222;2023-07-24T04:53:54;18.60;99.90
12413;DHT22;13877;18.896;-99.222;2023-07-24T04:56:20;18.60;99.90
12413;DHT22;13877;18.896;-99.222;2023-07-24T04:58:47;18.50;99.90
12413;DHT22;13877;18.896;-99.222;2023-07-24T05:01:13;18.50;99.90
12413;DHT22;13877;18.896;-99.222;2023-07-24T05:03:40;18.50;99.90
12413;DHT22;13877;18.896;-99.222;2023-07-24T05:06:06;18.50;99.90
12413;DHT22;13877;18.896;-99.222;2023-07-24T05:08:32;18.50;99.90
12413;DHT22;13877;18.896;-99.222;2023-07-24T05:10:59;18.50;99.90
12413;DHT22;13877;18.896;-99.222;2023-07-24T05:13:26;18.50;99.90
12413;DHT22;13877;18.896;-99.222;2023-07-24T05:15:52;18.50;99.90
12413;DHT22;13877;18.896;-99.222;2023-07-24T05:18:19;18.60;99.90
12413;DHT22;13877;18.896;-99.222;2023-07-24T05:20:45;18.60;99.90
12413;DHT22;13877;18.896;-99.222;2023-07-24T05:23:13;18.70;99.90
12413;DHT22;13877;18.896;-99.222;2023-07-24T05:25:40;18.70;99.90
12413;DHT22;13877;18.896;-99.222;2023-07-24T05:28:06;18.70;99.90
12413;DHT22;13877;18.896;-99.222;2023-07-24T05:30:33;18.60;99.90
12413;DHT22;13877;18.896;-99.222;2023-07-24T05:32:59;18.50;99.90
12413;DHT22;13877;18.896;-99.222;2023-07-24T05:35:26;18.60;99.90
12413;DHT22;13877;18.896;-99.222;2023-07-24T05:37:52;18.60;99.90
12413;DHT22;13877;18.896;-99.222;2023-07-24T05:40:19;18.70;99.90
12413;DHT22;13877;18.896;-99.222;2023-07-24T05:42:45;18.70;99.90
12413;DHT22;13877;18.896;-99.222;2023-07-24T05:45:12;18.80;99.90
12413;DHT22;13877;18.896;-99.222;2023-07-24T05:47:40;18.70;99.90
12413;DHT22;13877;18.896;-99.222;2023-07-24T05:50:07;18.70;99.90
12413;DHT22;13877;18.896;-99.222;2023-07-24T05:52:33;18.60;99.90
12413;DHT22;13877;18.896;-99.222;2023-07-24T05:55:00;18.60;99.90
12413;DHT22;13877;18.896;-99.222;2023-07-24T05:57:26;18.60;99.90
12413;DHT22;13877;18.896;-99.222;2023-07-24T05:59:53;18.60;99.90
12413;DHT22;13877;18.896;-99.222;2023-07-24T06:02:19;18.60;99.90
12413;DHT22;13877;18.896;-99.222;2023-07-24T06:04:46;18.50;99.90
12413;DHT22;13877;18.896;-99.222;2023-07-24T06:07:12;18.50;99.90
12413;DHT22;13877;18.896;-99.222;2023-07-24T06:09:39;18.50;99.90
12413;DHT22;13877;18.896;-99.222;2023-07-24T06:12:05;18.50;99.90
12413;DHT22;13877;18.896;-99.222;2023-07-24T06:14:32;18.50;99.90
12413;DHT22;13877;18.896;-99.222;2023-07-24T06:16:58;18.50;99.90
12413;DHT22;13877;18.896;-99.222;2023-07-24T06:19:25;18.50;99.90
12413;DHT22;13877;18.896;-99.222;2023-07-24T06:21:51;18.50;99.90
12413;DHT22;13877;18.896;-99.222;2023-07-24T06:24:17;18.60;99.90
12413;DHT22;13877;18.896;-99.222;2023-07-24T06:26:44;18.60;99.90
12413;DHT22;13877;18.896;-99.222;2023-07-24T06:29:11;18.60;99.90
12413;DHT22;13877;18.896;-99.222;2023-07-24T06:31:37;18.60;99.90
12413;DHT22;13877;18.896;-99.222;2023-07-24T06:34:04;18.70;99.90
12413;DHT22;13877;18.896;-99.222;2023-07-24T06:36:30;18.70;99.90
12413;DHT22;13877;18.896;-99.222;2023-07-24T06:38:56;18.70;99.90
12413;DHT22;13877;18.896;-99.222;2023-07-24T06:41:23;18.70;99.90
12413;DHT22;13877;18.896;-99.222;2023-07-24T06:43:51;18.80;99.90
12413;DHT22;13877;18.896;-99.222;2023-07-24T06:46:17;18.70;99.90
12413;DHT22;13877;18.896;-99.222;2023-07-24T06:48:43;18.80;99.90
12413;DHT22;13877;18.896;-99.222;2023-07-24T06:51:10;18.70;99.90
12413;DHT22;13877;18.896;-99.222;2023-07-24T06:53:36;18.60;99.90
12413;DHT22;13877;18.896;-99.222;2023-07-24T06:56:03;18.70;99.90
12413;DHT22;13877;18.896;-99.222;2023-07-24T06:58:30;18.70;99.90
12413;DHT22;13877;18.896;-99.222;2023-07-24T07:00:56;18.70;99.90
12413;DHT22;13877;18.896;-99.222;2023-07-24T07:03:23;18.70;99.90
12413;DHT22;13877;18.896;-99.222;2023-07-24T07:05:49;18.70;99.90
12413;DHT22;13877;18.896;-99.222;2023-07-24T07:08:16;18.70;99.90
12413;DHT22;13877;18.896;-99.222;2023-07-24T07:10:42;18.70;99.90
12413;DHT22;13877;18.896;-99.222;2023-07-24T07:13:10;18.80;99.90
12413;DHT22;13877;18.896;-99.222;2023-07-24T07:15:36;18.80;99.90
12413;DHT22;13877;18.896;-99.222;2023-07-24T07:18:03;18.80;99.90
12413;DHT22;13877;18.896;-99.222;2023-07-24T07:20:29;18.80;99.90
12413;DHT22;13877;18.896;-99.222;2023-07-24T07:22:55;18.80;99.90
12413;DHT22;13877;18.896;-99.222;2023-07-24T07:25:22;18.80;99.90
12413;DHT22;13877;18.896;-99.222;2023-07-24T07:27:48;18.70;99.90
12413;DHT22;13877;18.896;-99.222;2023-07-24T07:30:15;18.70;99.90
12413;DHT22;13877;18.896;-99.222;2023-07-24T07:32:42;18.80;99.90
12413;DHT22;13877;18.896;-99.222;2023-07-24T07:35:08;18.70;99.90
12413;DHT22;13877;18.896;-99.222;2023-07-24T07:37:35;18.70;99.90
12413;DHT22;13877;18.896;-99.222;2023-07-24T07:40:01;18.70;99.90
12413;DHT22;13877;18.896;-99.222;2023-07-24T07:42:29;18.70;99.90
12413;DHT22;13877;18.896;-99.222;2023-07-24T07:44:55;18.70;99.90
12413;DHT22;13877;18.896;-99.222;2023-07-24T07:47:21;18.70;99.90
12413;DHT22;13877;18.896;-99.222;2023-07-24T07:49:48;18.70;99.90
12413;DHT22;13877;18.896;-99.222;2023-07-24T07:52:14;18.70;99.90
12413;DHT22;13877;18.896;-99.222;2023-07-24T07:54:47;18.70;99.90
12413;DHT22;13877;18.896;-99.222;2023-07-24T07:57:13;18.80;99.90
12413;DHT22;13877;18.896;-99.222;2023-07-24T07:59:56;18.80;99.90
12413;DHT22;13877;18.896;-99.222;2023-07-24T08:02:22;18.60;99.90
12413;DHT22;13877;18.896;-99.222;2023-07-24T08:04:48;18.60;99.90
12413;DHT22;13877;18.896;-99.222;2023-07-24T08:07:15;18.60;99.90
12413;DHT22;13877;18.896;-99.222;2023-07-24T08:09:41;18.60;99.90
12413;DHT22;13877;18.896;-99.222;2023-07-24T08:12:08;18.60;99.90
12413;DHT22;13877;18.896;-99.222;2023-07-24T08:14:34;18.70;99.90
12413;DHT22;13877;18.896;-99.222;2023-07-24T08:17:01;18.70;99.90
12413;DHT22;13877;18.896;-99.222;2023-07-24T08:19:30;18.70;99.90
12413;DHT22;13877;18.896;-99.222;2023-07-24T08:21:56;18.60;99.90
12413;DHT22;13877;18.896;-99.222;2023-07-24T08:24:23;18.60;99.90
12413;DHT22;13877;18.896;-99.222;2023-07-24T08:26:49;18.70;99.90
12413;DHT22;13877;18.896;-99.222;2023-07-24T08:29:16;18.60;99.90
12413;DHT22;13877;18.896;-99.222;2023-07-24T08:31:42;18.50;99.90
12413;DHT22;13877;18.896;-99.222;2023-07-24T08:34:08;18.60;99.90
12413;DHT22;13877;18.896;-99.222;2023-07-24T08:36:35;18.70;99.90
12413;DHT22;13877;18.896;-99.222;2023-07-24T08:39:03;18.70;99.90
12413;DHT22;13877;18.896;-99.222;2023-07-24T08:41:29;18.60;99.90
12413;DHT22;13877;18.896;-99.222;2023-07-24T08:43:58;18.60;99.90
12413;DHT22;13877;18.896;-99.222;2023-07-24T08:46:25;18.50;99.90
12413;DHT22;13877;18.896;-99.222;2023-07-24T08:48:51;18.60;99.90
12413;DHT22;13877;18.896;-99.222;2023-07-24T08:51:18;18.60;99.90
12413;DHT22;13877;18.896;-99.222;2023-07-24T08:53:47;18.70;99.90
12413;DHT22;13877;18.896;-99.222;2023-07-24T08:56:14;18.60;99.90
12413;DHT22;13877;18.896;-99.222;2023-07-24T08:58:40;18.70;99.90
12413;DHT22;13877;18.896;-99.222;2023-07-24T09:01:07;18.60;99.90
12413;DHT22;13877;18.896;-99.222;2023-07-24T09:03:34;18.60;99.90
12413;DHT22;13877;18.896;-99.222;2023-07-24T09:06:01;18.60;99.90
12413;DHT22;13877;18.896;-99.222;2023-07-24T09:11:02;18.60;99.90
12413;DHT22;13877;18.896;-99.222;2023-07-24T09:13:29;18.50;99.90
12413;DHT22;13877;18.896;-99.222;2023-07-24T09:15:55;18.50;99.90
12413;DHT22;13877;18.896;-99.222;2023-07-24T09:18:22;18.50;99.90
12413;DHT22;13877;18.896;-99.222;2023-07-24T09:20:49;18.60;99.90
12413;DHT22;13877;18.896;-99.222;2023-07-24T09:23:15;18.60;99.90
12413;DHT22;13877;18.896;-99.222;2023-07-24T09:25:42;18.60;99.90
12413;DHT22;13877;18.896;-99.222;2023-07-24T09:28:12;18.60;99.90
12413;DHT22;13877;18.896;-99.222;2023-07-24T09:30:39;18.60;99.90
12413;DHT22;13877;18.896;-99.222;2023-07-24T09:33:06;18.60;99.90
12413;DHT22;13877;18.896;-99.222;2023-07-24T09:35:33;18.60;99.90
12413;DHT22;13877;18.896;-99.222;2023-07-24T09:38:07;18.50;99.90
12413;DHT22;13877;18.896;-99.222;2023-07-24T09:40:45;18.50;99.90
12413;DHT22;13877;18.896;-99.222;2023-07-24T09:43:16;18.50;99.90
12413;DHT22;13877;18.896;-99.222;2023-07-24T09:45:43;18.50;99.90
12413;DHT22;13877;18.896;-99.222;2023-07-24T09:48:11;18.60;99.90
12413;DHT22;13877;18.896;-99.222;2023-07-24T09:50:40;18.60;99.90
12413;DHT22;13877;18.896;-99.222;2023-07-24T09:53:12;18.60;99.90
12413;DHT22;13877;18.896;-99.222;2023-07-24T09:55:43;18.60;99.90
12413;DHT22;13877;18.896;-99.222;2023-07-24T09:58:13;18.60;99.90
12413;DHT22;13877;18.896;-99.222;2023-07-24T10:00:40;18.60;99.90
12413;DHT22;13877;18.896;-99.222;2023-07-24T10:03:07;18.60;99.90
12413;DHT22;13877;18.896;-99.222;2023-07-24T10:05:34;18.60;99.90
12413;DHT22;13877;18.896;-99.222;2023-07-24T10:08:00;18.60;99.90
12413;DHT22;13877;18.896;-99.222;2023-07-24T10:10:27;18.60;99.90
12413;DHT22;13877;18.896;-99.222;2023-07-24T10:12:56;18.60;99.90
12413;DHT22;13877;18.896;-99.222;2023-07-24T10:15:22;18.60;99.90
12413;DHT22;13877;18.896;-99.222;2023-07-24T10:17:49;18.60;99.90
12413;DHT22;13877;18.896;-99.222;2023-07-24T10:20:16;18.60;99.90
12413;DHT22;13877;18.896;-99.222;2023-07-24T10:22:42;18.60;99.90
12413;DHT22;13877;18.896;-99.222;2023-07-24T10:25:09;18.60;99.90
12413;DHT22;13877;18.896;-99.222;2023-07-24T10:27:39;18.70;99.90
12413;DHT22;13877;18.896;-99.222;2023-07-24T10:30:05;18.70;99.90
12413;DHT22;13877;18.896;-99.222;2023-07-24T10:32:33;18.60;99.90
12413;DHT22;13877;18.896;-99.222;2023-07-24T10:35:08;18.60;99.90
12413;DHT22;13877;18.896;-99.222;2023-07-24T10:37:36;18.50;99.90
12413;DHT22;13877;18.896;-99.222;2023-07-24T10:40:03;18.40;99.90
12413;DHT22;13877;18.896;-99.222;2023-07-24T10:42:30;18.40;99.90
12413;DHT22;13877;18.896;-99.222;2023-07-24T10:45:06;18.30;99.90
12413;DHT22;13877;18.896;-99.222;2023-07-24T10:47:33;18.30;99.90
12413;DHT22;13877;18.896;-99.222;2023-07-24T10:49:59;18.40;99.90
12413;DHT22;13877;18.896;-99.222;2023-07-24T10:52:32;18.40;99.90
12413;DHT22;13877;18.896;-99.222;2023-07-24T10:55:04;18.50;99.90
12413;DHT22;13877;18.896;-99.222;2023-07-24T10:57:31;18.40;99.90
12413;DHT22;13877;18.896;-99.222;2023-07-24T10:59:59;18.40;99.90
12413;DHT22;13877;18.896;-99.222;2023-07-24T11:02:25;18.50;99.90
12413;DHT22;13877;18.896;-99.222;2023-07-24T11:04:51;18.50;99.90
12413;DHT22;13877;18.896;-99.222;2023-07-24T11:07:18;18.50;99.90
12413;DHT22;13877;18.896;-99.222;2023-07-24T11:09:44;18.50;99.90
12413;DHT22;13877;18.896;-99.222;2023-07-24T11:12:14;18.40;99.90
12413;DHT22;13877;18.896;-99.222;2023-07-24T11:14:50;18.40;99.90
12413;DHT22;13877;18.896;-99.222;2023-07-24T11:17:20;18.40;99.90
12413;DHT22;13877;18.896;-99.222;2023-07-24T11:19:46;18.40;99.90
12413;DHT22;13877;18.896;-99.222;2023-07-24T11:22:12;18.50;99.90
12413;DHT22;13877;18.896;-99.222;2023-07-24T11:24:43;18.50;99.90
12413;DHT22;13877;18.896;-99.222;2023-07-24T11:27:10;18.40;99.90
12413;DHT22;13877;18.896;-99.222;2023-07-24T11:29:38;18.40;99.90
12413;DHT22;13877;18.896;-99.222;2023-07-24T11:32:04;18.40;99.90
12413;DHT22;13877;18.896;-99.222;2023-07-24T11:34:31;18.40;99.90
12413;DHT22;13877;18.896;-99.222;2023-07-24T11:36:57;18.40;99.90
12413;DHT22;13877;18.896;-99.222;2023-07-24T11:39:24;18.50;99.90
12413;DHT22;13877;18.896;-99.222;2023-07-24T11:41:51;18.40;99.90
12413;DHT22;13877;18.896;-99.222;2023-07-24T11:44:27;18.40;99.90
12413;DHT22;13877;18.896;-99.222;2023-07-24T11:47:01;18.50;99.90
12413;DHT22;13877;18.896;-99.222;2023-07-24T11:49:28;18.50;99.90
12413;DHT22;13877;18.896;-99.222;2023-07-24T11:52:05;18.50;99.90
12413;DHT22;13877;18.896;-99.222;2023-07-24T11:54:33;18.50;99.90
12413;DHT22;13877;18.896;-99.222;2023-07-24T11:57:00;18.50;99.90
12413;DHT22;13877;18.896;-99.222;2023-07-24T11:59:26;18.50;99.90
12413;DHT22;13877;18.896;-99.222;2023-07-24T12:01:53;18.60;99.90
12413;DHT22;13877;18.896;-99.222;2023-07-24T12:04:20;18.50;99.90
12413;DHT22;13877;18.896;-99.222;2023-07-24T12:06:46;18.50;99.90
12413;DHT22;13877;18.896;-99.222;2023-07-24T12:09:13;18.50;99.90
12413;DHT22;13877;18.896;-99.222;2023-07-24T12:11:40;18.50;99.90
12413;DHT22;13877;18.896;-99.222;2023-07-24T12:14:07;18.50;99.90
12413;DHT22;13877;18.896;-99.222;2023-07-24T12:16:34;18.50;99.90
12413;DHT22;13877;18.896;-99.222;2023-07-24T12:19:01;18.50;99.90
12413;DHT22;13877;18.896;-99.222;2023-07-24T12:21:27;18.40;99.90
12413;DHT22;13877;18.896;-99.222;2023-07-24T12:23:55;18.50;99.90
12413;DHT22;13877;18.896;-99.222;2023-07-24T12:26:21;18.40;99.90
12413;DHT22;13877;18.896;-99.222;2023-07-24T12:28:51;18.40;99.90
12413;DHT22;13877;18.896;-99.222;2023-07-24T12:31:17;18.40;99.90
12413;DHT22;13877;18.896;-99.222;2023-07-24T12:33:44;18.40;99.90
12413;DHT22;13877;18.896;-99.222;2023-07-24T12:36:10;18.40;99.90
12413;DHT22;13877;18.896;-99.222;2023-07-24T12:38:36;18.40;99.90
12413;DHT22;13877;18.896;-99.222;2023-07-24T12:41:03;18.40;99.90
12413;DHT22;13877;18.896;-99.222;2023-07-24T12:43:29;18.40;99.90
12413;DHT22;13877;18.896;-99.222;2023-07-24T12:45:56;18.40;99.90
12413;DHT22;13877;18.896;-99.222;2023-07-24T12:48:22;18.40;99.90
12413;DHT22;13877;18.896;-99.222;2023-07-24T12:50:48;18.50;99.90
12413;DHT22;13877;18.896;-99.222;2023-07-24T12:53:15;18.50;99.90
12413;DHT22;13877;18.896;-99.222;2023-07-24T12:55:41;18.50;99.90
12413;DHT22;13877;18.896;-99.222;2023-07-24T12:58:08;18.50;99.90
12413;DHT22;13877;18.896;-99.222;2023-07-24T13:00:34;18.60;99.90
12413;DHT22;13877;18.896;-99.222;2023-07-24T13:03:01;18.60;99.90
12413;DHT22;13877;18.896;-99.222;2023-07-24T13:05:27;18.60;99.90
12413;DHT22;13877;18.896;-99.222;2023-07-24T13:07:53;18.60;99.90
12413;DHT22;13877;18.896;-99.222;2023-07-24T13:10:20;18.60;99.90
12413;DHT22;13877;18.896;-99.222;2023-07-24T13:12:46;18.70;99.90
12413;DHT22;13877;18.896;-99.222;2023-07-24T13:15:13;18.80;99.90
12413;DHT22;13877;18.896;-99.222;2023-07-24T13:17:40;18.80;99.90
12413;DHT22;13877;18.896;-99.222;2023-07-24T13:20:06;18.80;99.90
12413;DHT22;13877;18.896;-99.222;2023-07-24T13:22:33;18.90;99.90
12413;DHT22;13877;18.896;-99.222;2023-07-24T13:24:59;18.90;99.90
12413;DHT22;13877;18.896;-99.222;2023-07-24T13:27:26;18.90;99.90
12413;DHT22;13877;18.896;-99.222;2023-07-24T13:29:52;19.00;99.90
12413;DHT22;13877;18.896;-99.222;2023-07-24T13:32:19;19.00;99.90
12413;DHT22;13877;18.896;-99.222;2023-07-24T13:34:45;19.10;99.90
12413;DHT22;13877;18.896;-99.222;2023-07-24T13:37:13;19.10;99.90
12413;DHT22;13877;18.896;-99.222;2023-07-24T13:39:39;19.20;99.90
12413;DHT22;13877;18.896;-99.222;2023-07-24T13:42:06;19.20;99.90
12413;DHT22;13877;18.896;-99.222;2023-07-24T13:44:32;19.30;99.90
12413;DHT22;13877;18.896;-99.222;2023-07-24T13:46:59;19.30;99.90
12413;DHT22;13877;18.896;-99.222;2023-07-24T13:49:25;19.50;99.90
12413;DHT22;13877;18.896;-99.222;2023-07-24T13:51:52;19.70;99.90
12413;DHT22;13877;18.896;-99.222;2023-07-24T13:54:18;19.90;99.90
12413;DHT22;13877;18.896;-99.222;2023-07-24T13:56:45;20.10;99.90
12413;DHT22;13877;18.896;-99.222;2023-07-24T13:59:11;20.20;99.90
12413;DHT22;13877;18.896;-99.222;2023-07-24T14:01:37;20.60;99.90
12413;DHT22;13877;18.896;-99.222;2023-07-24T14:04:04;21.10;99.90
12413;DHT22;13877;18.896;-99.222;2023-07-24T14:06:30;21.50;99.90
12413;DHT22;13877;18.896;-99.222;2023-07-24T14:08:57;21.70;99.90
12413;DHT22;13877;18.896;-99.222;2023-07-24T14:11:23;21.70;99.90
12413;DHT22;13877;18.896;-99.222;2023-07-24T14:13:50;22.00;99.90
12413;DHT22;13877;18.896;-99.222;2023-07-24T14:16:17;22.70;99.90
12413;DHT22;13877;18.896;-99.222;2023-07-24T14:18:43;23.10;99.90
12413;DHT22;13877;18.896;-99.222;2023-07-24T14:21:10;23.00;99.90
12413;DHT22;13877;18.896;-99.222;2023-07-24T14:23:36;22.70;99.90
12413;DHT22;13877;18.896;-99.222;2023-07-24T14:26:02;22.70;99.90
12413;DHT22;13877;18.896;-99.222;2023-07-24T14:28:29;22.80;99.90
12413;DHT22;13877;18.896;-99.222;2023-07-24T14:30:55;22.60;99.90
12413;DHT22;13877;18.896;-99.222;2023-07-24T14:33:22;22.50;99.90
12413;DHT22;13877;18.896;-99.222;2023-07-24T14:35:49;22.10;99.90
12413;DHT22;13877;18.896;-99.222;2023-07-24T14:38:15;21.60;99.90
12413;DHT22;13877;18.896;-99.222;2023-07-24T14:40:42;21.50;99.90
12413;DHT22;13877;18.896;-99.222;2023-07-24T14:43:08;21.40;99.90
12413;DHT22;13877;18.896;-99.222;2023-07-24T14:45:35;21.40;99.90
12413;DHT22;13877;18.896;-99.222;2023-07-24T14:48:01;21.50;99.90
12413;DHT22;13877;18.896;-99.222;2023-07-24T14:50:27;21.90;99.90
12413;DHT22;13877;18.896;-99.222;2023-07-24T14:52:54;22.00;99.90
12413;DHT22;13877;18.896;-99.222;2023-07-24T14:55:21;22.20;99.90
12413;DHT22;13877;18.896;-99.222;2023-07-24T14:57:47;22.70;99.90
12413;DHT22;13877;18.896;-99.222;2023-07-24T15:00:14;22.80;99.90
12413;DHT22;13877;18.896;-99.222;2023-07-24T15:02:42;23.20;99.90
12413;DHT22;13877;18.896;-99.222;2023-07-24T15:05:08;23.50;99.90
12413;DHT22;13877;18.896;-99.222;2023-07-24T15:07:35;24.20;99.90
12413;DHT22;13877;18.896;-99.222;2023-07-24T15:10:01;24.20;99.90